Terminal Aerodrome Forecast
Issued by NWS

Home | Current Version | Previous Version | Text Only | Print | Product List | Glossary On
Versions: 1 2 3 4 5 6 7 8 9 10 11 12 13 14 15 16 17 18 19 20
000
FTUS41 KBGM 042323
TAFELM
TAF
KELM 042323Z 0500/0524 VRB03KT P6SM SCT040
     FM050400 VRB03KT P6SM BKN025
     FM050600 VRB03KT 1 1/2SM BR OVC008
     FM051400 14005KT P6SM BKN025
     FM051600 19006KT P6SM BKN045=

USA.gov is the U.S. government's official web portal to all federal, state and local government web resources and services.